Aviation Digital Data Service (ADDS)

Output produced by METARs form (0440 UTC 26 April 2019)
found at http://www.aviationweather.gov/metar/data/
 
Forecast for: BIAR (AKUREYRI , IS)
Text: TAF BIAR 260406Z 2606/2706 12008KT 9999 SCT050 TX12/2612Z TN04/2706Z
Forecast period: 0600 UTC 26 April 2019 to 0600 UTC 27 April 2019
Forecast type: FROM: standard forecast or significant change
Winds: from the ESE (120 degrees) at 9 MPH (8 knots; 4.1 m/s)
Visibility: 6 or more miles 10+ km)
Ceiling: at least 12,000 feet AGL
Clouds: scattered clouds at 5000 feet AGL
Weather: no significant weather forecast for this period
Text: PROB40
Forecast period: 1500 to 2100 UTC 26 April 2019
Forecast type: TEMPORARY: The following changes expected for less than half the time period
Visibility: missing
Ceiling: 1800 feet AGL
Clouds: broken clouds at 1800 feet AGL
Weather: -RA  (light rain)